Prentice, Illinois
Current Conditions -  °F | °C
As of 4:35 PM on Wednesday 22 Oct 2014 (Local Time) from KIJX Reporting Station
Clear Clear  
Wind Chill: 64°   Ceiling: Unl
Heat Index: 64°   Visibility: 10mi
Dew Point: 40°   Wind: 6mph
Humidity: 43%   Direction: 130°SE
Pressure: 30.23"   Gusts: NA
Location:  39.9123°N, 90.0575°W
Report Text: KIJX 222135Z AUTO 13005KT 10SM CLR 18/05 A3023 RMK AO2 T01760047
Loading
Personal Weather Stations






























Interactive Weather Map
Tropical Storm Tracking
New forecast layout! Learn more

10-Day Weather Forecast

Advertisements
Track Severe Weather on mobile